sensor_id;sensor_type;location;lat;lon;timestamp;P1;durP1;ratioP1;P2;durP2;ratioP2
26181;SDS011;13927;51.534;11.866;2024-01-06T00:02:22;4.82;;;2.47;;
26181;SDS011;13927;51.534;11.866;2024-01-06T00:04:48;8.23;;;2.83;;
26181;SDS011;13927;51.534;11.866;2024-01-06T00:07:13;5.93;;;2.55;;
26181;SDS011;13927;51.534;11.866;2024-01-06T00:09:39;4.15;;;2.45;;
26181;SDS011;13927;51.534;11.866;2024-01-06T00:12:05;3.83;;;2.38;;
26181;SDS011;13927;51.534;11.866;2024-01-06T00:14:32;4.78;;;2.47;;
26181;SDS011;13927;51.534;11.866;2024-01-06T00:16:58;7.25;;;3.28;;
26181;SDS011;13927;51.534;11.866;2024-01-06T00:19:23;4.55;;;2.40;;
26181;SDS011;13927;51.534;11.866;2024-01-06T00:21:49;4.57;;;2.63;;
26181;SDS011;13927;51.534;11.866;2024-01-06T00:24:15;6.55;;;2.65;;
26181;SDS011;13927;51.534;11.866;2024-01-06T00:26:40;4.15;;;2.63;;
26181;SDS011;13927;51.534;11.866;2024-01-06T00:29:06;7.32;;;2.60;;
26181;SDS011;13927;51.534;11.866;2024-01-06T00:31:32;4.80;;;2.85;;
26181;SDS011;13927;51.534;11.866;2024-01-06T00:33:57;5.05;;;2.80;;
26181;SDS011;13927;51.534;11.866;2024-01-06T00:36:23;4.47;;;2.28;;
26181;SDS011;13927;51.534;11.866;2024-01-06T00:38:49;5.25;;;2.67;;
26181;SDS011;13927;51.534;11.866;2024-01-06T00:41:15;4.60;;;2.35;;
26181;SDS011;13927;51.534;11.866;2024-01-06T00:43:40;6.47;;;3.05;;
26181;SDS011;13927;51.534;11.866;2024-01-06T00:46:06;4.80;;;2.53;;
26181;SDS011;13927;51.534;11.866;2024-01-06T00:48:32;6.05;;;2.42;;
26181;SDS011;13927;51.534;11.866;2024-01-06T00:50:58;4.85;;;2.05;;
26181;SDS011;13927;51.534;11.866;2024-01-06T00:53:24;4.55;;;2.33;;
26181;SDS011;13927;51.534;11.866;2024-01-06T00:55:50;4.32;;;2.17;;
26181;SDS011;13927;51.534;11.866;2024-01-06T00:58:15;4.47;;;1.67;;
26181;SDS011;13927;51.534;11.866;2024-01-06T01:00:41;3.05;;;2.03;;
26181;SDS011;13927;51.534;11.866;2024-01-06T01:03:08;6.22;;;2.05;;
26181;SDS011;13927;51.534;11.866;2024-01-06T01:05:34;4.85;;;2.85;;
26181;SDS011;13927;51.534;11.866;2024-01-06T01:08:00;7.05;;;2.72;;
26181;SDS011;13927;51.534;11.866;2024-01-06T01:10:25;4.57;;;2.88;;
26181;SDS011;13927;51.534;11.866;2024-01-06T01:12:51;3.45;;;2.00;;
26181;SDS011;13927;51.534;11.866;2024-01-06T01:15:18;4.55;;;2.30;;
26181;SDS011;13927;51.534;11.866;2024-01-06T01:17:44;6.20;;;2.40;;
26181;SDS011;13927;51.534;11.866;2024-01-06T01:20:09;5.25;;;2.25;;
26181;SDS011;13927;51.534;11.866;2024-01-06T01:22:35;7.28;;;3.00;;
26181;SDS011;13927;51.534;11.866;2024-01-06T01:25:01;3.50;;;2.22;;
26181;SDS011;13927;51.534;11.866;2024-01-06T01:27:32;4.72;;;2.65;;
26181;SDS011;13927;51.534;11.866;2024-01-06T01:30:01;6.05;;;1.80;;
26181;SDS011;13927;51.534;11.866;2024-01-06T01:32:26;7.95;;;2.63;;
26181;SDS011;13927;51.534;11.866;2024-01-06T01:34:52;3.92;;;2.30;;
26181;SDS011;13927;51.534;11.866;2024-01-06T01:37:18;4.28;;;2.92;;
26181;SDS011;13927;51.534;11.866;2024-01-06T01:39:43;7.80;;;3.30;;
26181;SDS011;13927;51.534;11.866;2024-01-06T01:42:09;6.90;;;2.75;;
26181;SDS011;13927;51.534;11.866;2024-01-06T01:44:35;7.13;;;2.75;;
26181;SDS011;13927;51.534;11.866;2024-01-06T01:47:04;6.40;;;2.33;;
26181;SDS011;13927;51.534;11.866;2024-01-06T01:49:30;2.90;;;2.10;;
26181;SDS011;13927;51.534;11.866;2024-01-06T01:51:57;3.72;;;1.88;;
26181;SDS011;13927;51.534;11.866;2024-01-06T01:54:23;2.67;;;2.03;;
26181;SDS011;13927;51.534;11.866;2024-01-06T01:56:50;4.22;;;2.00;;
26181;SDS011;13927;51.534;11.866;2024-01-06T01:59:18;5.25;;;2.17;;
26181;SDS011;13927;51.534;11.866;2024-01-06T02:01:44;8.55;;;2.50;;
26181;SDS011;13927;51.534;11.866;2024-01-06T02:04:11;4.10;;;2.30;;
26181;SDS011;13927;51.534;11.866;2024-01-06T02:06:37;2.92;;;1.90;;
26181;SDS011;13927;51.534;11.866;2024-01-06T02:09:03;5.18;;;2.53;;
26181;SDS011;13927;51.534;11.866;2024-01-06T02:11:29;4.65;;;2.35;;
26181;SDS011;13927;51.534;11.866;2024-01-06T02:13:54;3.58;;;2.00;;
26181;SDS011;13927;51.534;11.866;2024-01-06T02:16:20;5.32;;;2.30;;
26181;SDS011;13927;51.534;11.866;2024-01-06T02:18:46;3.70;;;1.70;;
26181;SDS011;13927;51.534;11.866;2024-01-06T02:21:11;3.80;;;2.15;;
26181;SDS011;13927;51.534;11.866;2024-01-06T02:23:39;5.65;;;2.17;;
26181;SDS011;13927;51.534;11.866;2024-01-06T02:26:05;3.67;;;2.05;;
26181;SDS011;13927;51.534;11.866;2024-01-06T02:28:31;4.47;;;2.40;;
26181;SDS011;13927;51.534;11.866;2024-01-06T02:30:56;6.72;;;1.92;;
26181;SDS011;13927;51.534;11.866;2024-01-06T02:33:23;5.57;;;1.83;;
26181;SDS011;13927;51.534;11.866;2024-01-06T02:35:49;6.38;;;2.22;;
26181;SDS011;13927;51.534;11.866;2024-01-06T02:38:15;6.10;;;2.80;;
26181;SDS011;13927;51.534;11.866;2024-01-06T02:40:42;9.18;;;3.35;;
26181;SDS011;13927;51.534;11.866;2024-01-06T02:43:09;7.35;;;3.42;;
26181;SDS011;13927;51.534;11.866;2024-01-06T02:45:36;5.32;;;3.15;;
26181;SDS011;13927;51.534;11.866;2024-01-06T02:48:02;4.57;;;2.55;;
26181;SDS011;13927;51.534;11.866;2024-01-06T02:50:29;2.95;;;1.88;;
26181;SDS011;13927;51.534;11.866;2024-01-06T02:52:54;4.72;;;2.33;;
26181;SDS011;13927;51.534;11.866;2024-01-06T02:55:20;7.18;;;2.40;;
26181;SDS011;13927;51.534;11.866;2024-01-06T02:57:46;6.43;;;1.90;;
26181;SDS011;13927;51.534;11.866;2024-01-06T03:00:11;7.35;;;2.25;;
26181;SDS011;13927;51.534;11.866;2024-01-06T03:02:38;3.97;;;1.65;;
26181;SDS011;13927;51.534;11.866;2024-01-06T03:05:07;4.05;;;2.45;;
26181;SDS011;13927;51.534;11.866;2024-01-06T03:07:33;3.15;;;1.98;;
26181;SDS011;13927;51.534;11.866;2024-01-06T03:10:00;4.95;;;2.15;;
26181;SDS011;13927;51.534;11.866;2024-01-06T03:12:26;3.15;;;2.08;;
26181;SDS011;13927;51.534;11.866;2024-01-06T03:14:53;8.45;;;2.72;;
26181;SDS011;13927;51.534;11.866;2024-01-06T03:17:19;3.60;;;2.33;;
26181;SDS011;13927;51.534;11.866;2024-01-06T03:19:44;3.67;;;1.90;;
26181;SDS011;13927;51.534;11.866;2024-01-06T03:22:10;4.78;;;2.47;;
26181;SDS011;13927;51.534;11.866;2024-01-06T03:24:37;4.43;;;2.35;;
26181;SDS011;13927;51.534;11.866;2024-01-06T03:27:05;4.93;;;2.17;;
26181;SDS011;13927;51.534;11.866;2024-01-06T03:29:30;6.10;;;2.55;;
26181;SDS011;13927;51.534;11.866;2024-01-06T03:31:57;5.78;;;3.22;;
26181;SDS011;13927;51.534;11.866;2024-01-06T03:34:23;4.18;;;2.28;;
26181;SDS011;13927;51.534;11.866;2024-01-06T03:36:49;5.30;;;2.58;;
26181;SDS011;13927;51.534;11.866;2024-01-06T03:39:15;4.30;;;2.40;;
26181;SDS011;13927;51.534;11.866;2024-01-06T03:41:41;4.40;;;2.60;;
26181;SDS011;13927;51.534;11.866;2024-01-06T03:44:06;6.60;;;2.88;;
26181;SDS011;13927;51.534;11.866;2024-01-06T03:46:34;5.68;;;2.88;;
26181;SDS011;13927;51.534;11.866;2024-01-06T03:49:01;4.07;;;2.63;;
26181;SDS011;13927;51.534;11.866;2024-01-06T03:51:28;3.42;;;2.08;;
26181;SDS011;13927;51.534;11.866;2024-01-06T03:53:54;6.03;;;2.67;;
26181;SDS011;13927;51.534;11.866;2024-01-06T03:56:19;6.18;;;2.60;;
26181;SDS011;13927;51.534;11.866;2024-01-06T03:58:46;4.57;;;2.20;;
26181;SDS011;13927;51.534;11.866;2024-01-06T04:01:12;3.47;;;2.05;;
26181;SDS011;13927;51.534;11.866;2024-01-06T04:03:43;3.67;;;2.55;;
26181;SDS011;13927;51.534;11.866;2024-01-06T04:06:09;6.15;;;2.17;;
26181;SDS011;13927;51.534;11.866;2024-01-06T04:08:39;5.60;;;2.28;;
26181;SDS011;13927;51.534;11.866;2024-01-06T04:11:06;4.50;;;2.25;;
26181;SDS011;13927;51.534;11.866;2024-01-06T04:13:31;5.80;;;2.90;;
26181;SDS011;13927;51.534;11.866;2024-01-06T04:15:57;5.07;;;2.00;;
26181;SDS011;13927;51.534;11.866;2024-01-06T04:18:23;3.38;;;1.98;;
26181;SDS011;13927;51.534;11.866;2024-01-06T04:20:48;4.20;;;2.70;;
26181;SDS011;13927;51.534;11.866;2024-01-06T04:23:14;3.47;;;2.45;;
26181;SDS011;13927;51.534;11.866;2024-01-06T04:25:40;6.18;;;2.50;;
26181;SDS011;13927;51.534;11.866;2024-01-06T04:28:05;3.47;;;2.47;;
26181;SDS011;13927;51.534;11.866;2024-01-06T04:30:31;4.85;;;2.47;;
26181;SDS011;13927;51.534;11.866;2024-01-06T04:32:57;6.30;;;3.20;;
26181;SDS011;13927;51.534;11.866;2024-01-06T04:35:23;4.75;;;2.88;;
26181;SDS011;13927;51.534;11.866;2024-01-06T04:37:50;5.32;;;3.00;;
26181;SDS011;13927;51.534;11.866;2024-01-06T04:40:16;5.63;;;2.95;;
26181;SDS011;13927;51.534;11.866;2024-01-06T04:42:42;6.40;;;3.10;;
26181;SDS011;13927;51.534;11.866;2024-01-06T04:45:07;7.20;;;3.33;;
26181;SDS011;13927;51.534;11.866;2024-01-06T04:47:33;7.55;;;3.35;;
26181;SDS011;13927;51.534;11.866;2024-01-06T04:49:59;6.10;;;2.85;;
26181;SDS011;13927;51.534;11.866;2024-01-06T04:52:25;5.25;;;2.55;;
26181;SDS011;13927;51.534;11.866;2024-01-06T04:54:50;3.35;;;2.70;;
26181;SDS011;13927;51.534;11.866;2024-01-06T04:57:16;5.50;;;2.88;;
26181;SDS011;13927;51.534;11.866;2024-01-06T04:59:43;8.20;;;3.45;;
26181;SDS011;13927;51.534;11.866;2024-01-06T05:02:09;5.78;;;2.60;;
26181;SDS011;13927;51.534;11.866;2024-01-06T05:04:35;4.63;;;3.00;;
26181;SDS011;13927;51.534;11.866;2024-01-06T05:07:01;7.25;;;3.20;;
26181;SDS011;13927;51.534;11.866;2024-01-06T05:09:26;5.35;;;2.85;;
26181;SDS011;13927;51.534;11.866;2024-01-06T05:11:53;5.30;;;2.92;;
26181;SDS011;13927;51.534;11.866;2024-01-06T05:14:19;5.70;;;3.28;;
26181;SDS011;13927;51.534;11.866;2024-01-06T05:16:47;6.30;;;2.78;;
26181;SDS011;13927;51.534;11.866;2024-01-06T05:19:13;4.85;;;2.90;;
26181;SDS011;13927;51.534;11.866;2024-01-06T05:21:44;7.13;;;4.25;;
26181;SDS011;13927;51.534;11.866;2024-01-06T05:24:10;8.50;;;3.92;;
26181;SDS011;13927;51.534;11.866;2024-01-06T05:26:35;8.60;;;4.05;;
26181;SDS011;13927;51.534;11.866;2024-01-06T05:29:03;6.18;;;4.10;;
26181;SDS011;13927;51.534;11.866;2024-01-06T05:31:28;5.28;;;3.13;;
26181;SDS011;13927;51.534;11.866;2024-01-06T05:33:54;7.10;;;3.53;;
26181;SDS011;13927;51.534;11.866;2024-01-06T05:36:19;5.93;;;3.15;;
26181;SDS011;13927;51.534;11.866;2024-01-06T05:38:45;26.15;;;13.00;;
26181;SDS011;13927;51.534;11.866;2024-01-06T05:41:11;8.20;;;5.43;;
26181;SDS011;13927;51.534;11.866;2024-01-06T05:43:36;6.47;;;4.20;;
26181;SDS011;13927;51.534;11.866;2024-01-06T05:46:03;12.57;;;5.85;;
26181;SDS011;13927;51.534;11.866;2024-01-06T05:48:29;25.55;;;11.75;;
26181;SDS011;13927;51.534;11.866;2024-01-06T05:50:55;20.98;;;10.20;;
26181;SDS011;13927;51.534;11.866;2024-01-06T05:53:20;10.40;;;5.20;;
26181;SDS011;13927;51.534;11.866;2024-01-06T05:55:46;7.03;;;3.38;;
26181;SDS011;13927;51.534;11.866;2024-01-06T05:58:13;9.00;;;4.10;;
26181;SDS011;13927;51.534;11.866;2024-01-06T06:00:39;5.63;;;2.65;;
26181;SDS011;13927;51.534;11.866;2024-01-06T06:03:05;13.80;;;5.68;;
26181;SDS011;13927;51.534;11.866;2024-01-06T06:05:32;18.80;;;7.97;;
26181;SDS011;13927;51.534;11.866;2024-01-06T06:07:58;24.20;;;11.25;;
26181;SDS011;13927;51.534;11.866;2024-01-06T06:10:24;21.92;;;8.88;;
26181;SDS011;13927;51.534;11.866;2024-01-06T06:12:55;14.45;;;8.15;;
26181;SDS011;13927;51.534;11.866;2024-01-06T06:15:21;16.40;;;8.68;;
26181;SDS011;13927;51.534;11.866;2024-01-06T06:17:48;17.05;;;7.65;;
26181;SDS011;13927;51.534;11.866;2024-01-06T06:20:13;14.73;;;7.40;;
26181;SDS011;13927;51.534;11.866;2024-01-06T06:22:39;14.20;;;7.10;;
26181;SDS011;13927;51.534;11.866;2024-01-06T06:25:05;14.45;;;6.90;;
26181;SDS011;13927;51.534;11.866;2024-01-06T06:27:33;14.95;;;6.47;;
26181;SDS011;13927;51.534;11.866;2024-01-06T06:30:00;14.68;;;6.10;;
26181;SDS011;13927;51.534;11.866;2024-01-06T06:32:29;10.07;;;5.50;;
26181;SDS011;13927;51.534;11.866;2024-01-06T06:34:55;9.40;;;5.60;;
26181;SDS011;13927;51.534;11.866;2024-01-06T06:37:20;11.10;;;5.35;;
26181;SDS011;13927;51.534;11.866;2024-01-06T06:39:46;12.05;;;5.72;;
26181;SDS011;13927;51.534;11.866;2024-01-06T06:42:12;11.02;;;5.55;;
26181;SDS011;13927;51.534;11.866;2024-01-06T06:44:37;10.55;;;6.43;;
26181;SDS011;13927;51.534;11.866;2024-01-06T06:47:03;10.07;;;5.28;;
26181;SDS011;13927;51.534;11.866;2024-01-06T06:49:29;8.82;;;5.32;;
26181;SDS011;13927;51.534;11.866;2024-01-06T06:51:54;10.38;;;5.13;;
26181;SDS011;13927;51.534;11.866;2024-01-06T06:54:21;12.93;;;5.75;;
26181;SDS011;13927;51.534;11.866;2024-01-06T06:56:46;7.53;;;4.80;;
26181;SDS011;13927;51.534;11.866;2024-01-06T06:59:12;8.60;;;4.97;;
26181;SDS011;13927;51.534;11.866;2024-01-06T07:01:39;9.32;;;4.55;;
26181;SDS011;13927;51.534;11.866;2024-01-06T07:04:05;7.57;;;4.30;;
26181;SDS011;13927;51.534;11.866;2024-01-06T07:06:30;18.38;;;10.25;;
26181;SDS011;13927;51.534;11.866;2024-01-06T07:08:56;23.30;;;12.27;;
26181;SDS011;13927;51.534;11.866;2024-01-06T07:11:23;22.80;;;10.52;;
26181;SDS011;13927;51.534;11.866;2024-01-06T07:13:49;16.08;;;9.13;;
26181;SDS011;13927;51.534;11.866;2024-01-06T07:16:16;9.95;;;5.22;;
26181;SDS011;13927;51.534;11.866;2024-01-06T07:18:42;9.38;;;3.67;;
26181;SDS011;13927;51.534;11.866;2024-01-06T07:21:08;6.75;;;3.92;;
26181;SDS011;13927;51.534;11.866;2024-01-06T07:23:33;5.75;;;3.80;;
26181;SDS011;13927;51.534;11.866;2024-01-06T07:26:00;13.95;;;5.45;;
26181;SDS011;13927;51.534;11.866;2024-01-06T07:28:26;8.35;;;4.57;;
26181;SDS011;13927;51.534;11.866;2024-01-06T07:30:55;8.10;;;5.07;;
26181;SDS011;13927;51.534;11.866;2024-01-06T07:33:21;9.52;;;5.20;;
26181;SDS011;13927;51.534;11.866;2024-01-06T07:35:48;9.88;;;5.53;;
26181;SDS011;13927;51.534;11.866;2024-01-06T07:38:15;11.75;;;6.90;;
26181;SDS011;13927;51.534;11.866;2024-01-06T07:40:40;9.45;;;5.53;;
26181;SDS011;13927;51.534;11.866;2024-01-06T07:43:07;11.43;;;5.32;;
26181;SDS011;13927;51.534;11.866;2024-01-06T07:45:32;12.25;;;6.93;;
26181;SDS011;13927;51.534;11.866;2024-01-06T07:47:58;7.93;;;5.50;;
26181;SDS011;13927;51.534;11.866;2024-01-06T07:50:24;8.15;;;4.93;;
26181;SDS011;13927;51.534;11.866;2024-01-06T07:52:51;6.30;;;4.30;;
26181;SDS011;13927;51.534;11.866;2024-01-06T07:55:17;7.18;;;4.43;;
26181;SDS011;13927;51.534;11.866;2024-01-06T07:57:45;33.97;;;15.27;;
26181;SDS011;13927;51.534;11.866;2024-01-06T08:00:11;29.35;;;13.93;;
26181;SDS011;13927;51.534;11.866;2024-01-06T08:02:39;13.60;;;7.22;;
26181;SDS011;13927;51.534;11.866;2024-01-06T08:05:06;9.20;;;5.90;;
26181;SDS011;13927;51.534;11.866;2024-01-06T08:07:32;9.63;;;5.55;;
26181;SDS011;13927;51.534;11.866;2024-01-06T08:09:59;11.85;;;5.72;;
26181;SDS011;13927;51.534;11.866;2024-01-06T08:12:24;18.23;;;10.55;;
26181;SDS011;13927;51.534;11.866;2024-01-06T08:14:50;16.50;;;7.75;;
26181;SDS011;13927;51.534;11.866;2024-01-06T08:17:16;33.78;;;17.60;;
26181;SDS011;13927;51.534;11.866;2024-01-06T08:19:41;28.60;;;16.02;;
26181;SDS011;13927;51.534;11.866;2024-01-06T08:22:08;24.63;;;13.88;;
26181;SDS011;13927;51.534;11.866;2024-01-06T08:24:34;9.07;;;5.00;;
26181;SDS011;13927;51.534;11.866;2024-01-06T08:27:00;10.05;;;5.78;;
26181;SDS011;13927;51.534;11.866;2024-01-06T08:29:27;7.45;;;4.05;;
26181;SDS011;13927;51.534;11.866;2024-01-06T08:31:52;5.22;;;3.78;;
26181;SDS011;13927;51.534;11.866;2024-01-06T08:34:20;4.63;;;3.40;;
26181;SDS011;13927;51.534;11.866;2024-01-06T08:36:45;7.60;;;4.43;;
26181;SDS011;13927;51.534;11.866;2024-01-06T08:39:11;11.43;;;5.70;;
26181;SDS011;13927;51.534;11.866;2024-01-06T08:41:38;13.63;;;6.20;;
26181;SDS011;13927;51.534;11.866;2024-01-06T08:44:04;9.07;;;5.72;;
26181;SDS011;13927;51.534;11.866;2024-01-06T08:46:29;10.93;;;6.07;;
26181;SDS011;13927;51.534;11.866;2024-01-06T08:48:56;12.63;;;6.20;;
26181;SDS011;13927;51.534;11.866;2024-01-06T08:51:21;10.45;;;5.80;;
26181;SDS011;13927;51.534;11.866;2024-01-06T08:53:49;7.57;;;4.68;;
26181;SDS011;13927;51.534;11.866;2024-01-06T08:56:16;9.02;;;4.90;;
26181;SDS011;13927;51.534;11.866;2024-01-06T08:58:42;6.68;;;4.40;;
26181;SDS011;13927;51.534;11.866;2024-01-06T09:01:09;9.55;;;4.38;;
26181;SDS011;13927;51.534;11.866;2024-01-06T09:03:35;7.25;;;3.80;;
26181;SDS011;13927;51.534;11.866;2024-01-06T09:06:01;7.35;;;4.35;;
26181;SDS011;13927;51.534;11.866;2024-01-06T09:08:28;9.60;;;4.35;;
26181;SDS011;13927;51.534;11.866;2024-01-06T09:10:54;8.13;;;4.57;;
26181;SDS011;13927;51.534;11.866;2024-01-06T09:13:22;11.25;;;5.75;;
26181;SDS011;13927;51.534;11.866;2024-01-06T09:15:53;9.50;;;5.65;;
26181;SDS011;13927;51.534;11.866;2024-01-06T09:18:18;7.35;;;4.72;;
26181;SDS011;13927;51.534;11.866;2024-01-06T09:20:44;7.75;;;4.85;;
26181;SDS011;13927;51.534;11.866;2024-01-06T09:23:12;6.78;;;4.30;;
26181;SDS011;13927;51.534;11.866;2024-01-06T09:25:39;13.48;;;5.55;;
26181;SDS011;13927;51.534;11.866;2024-01-06T09:28:05;12.05;;;5.65;;
26181;SDS011;13927;51.534;11.866;2024-01-06T09:30:31;13.63;;;6.50;;
26181;SDS011;13927;51.534;11.866;2024-01-06T09:32:58;10.80;;;6.03;;
26181;SDS011;13927;51.534;11.866;2024-01-06T09:35:23;7.88;;;4.82;;
26181;SDS011;13927;51.534;11.866;2024-01-06T09:37:49;8.85;;;5.20;;
26181;SDS011;13927;51.534;11.866;2024-01-06T09:40:17;7.78;;;5.70;;
26181;SDS011;13927;51.534;11.866;2024-01-06T09:42:49;16.38;;;8.35;;
26181;SDS011;13927;51.534;11.866;2024-01-06T09:45:16;11.25;;;6.20;;
26181;SDS011;13927;51.534;11.866;2024-01-06T09:47:42;9.65;;;5.40;;
26181;SDS011;13927;51.534;11.866;2024-01-06T09:50:17;11.60;;;5.53;;
26181;SDS011;13927;51.534;11.866;2024-01-06T09:52:47;9.07;;;5.70;;
26181;SDS011;13927;51.534;11.866;2024-01-06T09:55:25;12.35;;;6.90;;
26181;SDS011;13927;51.534;11.866;2024-01-06T09:57:54;10.32;;;6.50;;
26181;SDS011;13927;51.534;11.866;2024-01-06T10:00:20;10.30;;;6.47;;
26181;SDS011;13927;51.534;11.866;2024-01-06T10:02:49;12.00;;;6.10;;
26181;SDS011;13927;51.534;11.866;2024-01-06T10:05:16;10.88;;;6.40;;
26181;SDS011;13927;51.534;11.866;2024-01-06T10:07:42;9.65;;;6.03;;
26181;SDS011;13927;51.534;11.866;2024-01-06T10:10:11;13.95;;;6.60;;
26181;SDS011;13927;51.534;11.866;2024-01-06T10:12:37;13.20;;;6.40;;
26181;SDS011;13927;51.534;11.866;2024-01-06T10:15:07;10.90;;;5.97;;
26181;SDS011;13927;51.534;11.866;2024-01-06T10:17:40;11.43;;;6.75;;
26181;SDS011;13927;51.534;11.866;2024-01-06T10:20:09;33.10;;;15.65;;
26181;SDS011;13927;51.534;11.866;2024-01-06T10:22:37;10.52;;;6.15;;
26181;SDS011;13927;51.534;11.866;2024-01-06T10:25:05;13.57;;;6.85;;
26181;SDS011;13927;51.534;11.866;2024-01-06T10:27:33;6.35;;;3.80;;
26181;SDS011;13927;51.534;11.866;2024-01-06T10:30:00;6.03;;;4.20;;
26181;SDS011;13927;51.534;11.866;2024-01-06T10:32:26;4.72;;;3.15;;
26181;SDS011;13927;51.534;11.866;2024-01-06T10:34:56;5.45;;;3.17;;
26181;SDS011;13927;51.534;11.866;2024-01-06T10:37:24;5.82;;;3.00;;
26181;SDS011;13927;51.534;11.866;2024-01-06T10:40:04;6.13;;;3.55;;
26181;SDS011;13927;51.534;11.866;2024-01-06T10:42:37;6.93;;;3.35;;
26181;SDS011;13927;51.534;11.866;2024-01-06T10:45:09;5.55;;;3.22;;
26181;SDS011;13927;51.534;11.866;2024-01-06T10:47:37;7.05;;;4.10;;
26181;SDS011;13927;51.534;11.866;2024-01-06T10:50:07;5.93;;;3.72;;
26181;SDS011;13927;51.534;11.866;2024-01-06T10:52:34;8.88;;;4.35;;
26181;SDS011;13927;51.534;11.866;2024-01-06T10:55:00;7.35;;;4.53;;
26181;SDS011;13927;51.534;11.866;2024-01-06T10:57:29;7.85;;;4.07;;
26181;SDS011;13927;51.534;11.866;2024-01-06T10:59:57;8.38;;;4.30;;
26181;SDS011;13927;51.534;11.866;2024-01-06T11:02:24;5.90;;;4.35;;
26181;SDS011;13927;51.534;11.866;2024-01-06T11:04:51;12.10;;;4.57;;
26181;SDS011;13927;51.534;11.866;2024-01-06T11:07:21;7.75;;;4.80;;
26181;SDS011;13927;51.534;11.866;2024-01-06T11:09:50;6.20;;;4.30;;
26181;SDS011;13927;51.534;11.866;2024-01-06T11:12:43;6.28;;;4.45;;
26181;SDS011;13927;51.534;11.866;2024-01-06T11:15:09;9.18;;;5.68;;
26181;SDS011;13927;51.534;11.866;2024-01-06T11:17:54;12.32;;;6.25;;
26181;SDS011;13927;51.534;11.866;2024-01-06T11:20:23;11.25;;;7.15;;
26181;SDS011;13927;51.534;11.866;2024-01-06T11:22:52;12.23;;;7.90;;
26181;SDS011;13927;51.534;11.866;2024-01-06T11:25:19;14.00;;;7.80;;
26181;SDS011;13927;51.534;11.866;2024-01-06T11:27:49;18.83;;;9.07;;
26181;SDS011;13927;51.534;11.866;2024-01-06T11:30:22;14.05;;;8.07;;
26181;SDS011;13927;51.534;11.866;2024-01-06T11:32:52;15.90;;;9.15;;
26181;SDS011;13927;51.534;11.866;2024-01-06T11:35:18;13.05;;;8.70;;
26181;SDS011;13927;51.534;11.866;2024-01-06T11:43:08;16.48;;;9.50;;
26181;SDS011;13927;51.534;11.866;2024-01-06T11:45:34;14.02;;;8.50;;
26181;SDS011;13927;51.534;11.866;2024-01-06T11:48:04;17.52;;;9.18;;
26181;SDS011;13927;51.534;11.866;2024-01-06T11:50:33;18.00;;;9.55;;
26181;SDS011;13927;51.534;11.866;2024-01-06T11:53:02;17.35;;;9.13;;
26181;SDS011;13927;51.534;11.866;2024-01-06T11:55:29;20.05;;;10.23;;
26181;SDS011;13927;51.534;11.866;2024-01-06T11:57:59;18.67;;;9.50;;
26181;SDS011;13927;51.534;11.866;2024-01-06T12:00:32;17.08;;;9.60;;
26181;SDS011;13927;51.534;11.866;2024-01-06T12:03:01;22.92;;;10.10;;
26181;SDS011;13927;51.534;11.866;2024-01-06T12:05:27;20.00;;;10.40;;
26181;SDS011;13927;51.534;11.866;2024-01-06T12:07:57;20.42;;;10.15;;
26181;SDS011;13927;51.534;11.866;2024-01-06T12:10:28;21.27;;;11.48;;
26181;SDS011;13927;51.534;11.866;2024-01-06T12:12:55;22.88;;;11.18;;
26181;SDS011;13927;51.534;11.866;2024-01-06T12:15:29;20.50;;;10.13;;
26181;SDS011;13927;51.534;11.866;2024-01-06T12:17:56;20.77;;;11.40;;
26181;SDS011;13927;51.534;11.866;2024-01-06T12:20:23;24.33;;;12.30;;
26181;SDS011;13927;51.534;11.866;2024-01-06T12:22:51;21.10;;;11.95;;
26181;SDS011;13927;51.534;11.866;2024-01-06T12:25:20;19.77;;;10.35;;
26181;SDS011;13927;51.534;11.866;2024-01-06T12:27:47;19.92;;;11.07;;
26181;SDS011;13927;51.534;11.866;2024-01-06T12:30:21;19.92;;;10.73;;
26181;SDS011;13927;51.534;11.866;2024-01-06T12:32:49;23.23;;;11.35;;
26181;SDS011;13927;51.534;11.866;2024-01-06T12:35:17;21.83;;;11.13;;
26181;SDS011;13927;51.534;11.866;2024-01-06T12:37:43;25.77;;;13.18;;
26181;SDS011;13927;51.534;11.866;2024-01-06T12:40:13;19.55;;;11.27;;
26181;SDS011;13927;51.534;11.866;2024-01-06T12:42:41;22.88;;;12.60;;
26181;SDS011;13927;51.534;11.866;2024-01-06T12:45:08;20.58;;;11.48;;
26181;SDS011;13927;51.534;11.866;2024-01-06T12:47:35;18.83;;;10.63;;
26181;SDS011;13927;51.534;11.866;2024-01-06T12:50:02;17.48;;;10.20;;
26181;SDS011;13927;51.534;11.866;2024-01-06T12:52:29;19.10;;;11.10;;
26181;SDS011;13927;51.534;11.866;2024-01-06T12:54:55;20.17;;;11.98;;
26181;SDS011;13927;51.534;11.866;2024-01-06T12:57:23;21.70;;;12.35;;
26181;SDS011;13927;51.534;11.866;2024-01-06T12:59:48;20.05;;;13.00;;
26181;SDS011;13927;51.534;11.866;2024-01-06T13:02:14;19.98;;;12.50;;
26181;SDS011;13927;51.534;11.866;2024-01-06T13:04:40;22.73;;;11.57;;
26181;SDS011;13927;51.534;11.866;2024-01-06T13:07:05;23.85;;;12.48;;
26181;SDS011;13927;51.534;11.866;2024-01-06T13:09:31;20.83;;;11.70;;
26181;SDS011;13927;51.534;11.866;2024-01-06T13:11:58;19.88;;;11.57;;
26181;SDS011;13927;51.534;11.866;2024-01-06T13:14:26;23.23;;;11.95;;
26181;SDS011;13927;51.534;11.866;2024-01-06T13:16:52;24.77;;;12.38;;
26181;SDS011;13927;51.534;11.866;2024-01-06T13:19:18;21.33;;;12.02;;
26181;SDS011;13927;51.534;11.866;2024-01-06T13:21:44;21.25;;;11.63;;
26181;SDS011;13927;51.534;11.866;2024-01-06T13:24:10;25.15;;;13.70;;
26181;SDS011;13927;51.534;11.866;2024-01-06T13:26:37;27.55;;;14.80;;
26181;SDS011;13927;51.534;11.866;2024-01-06T13:29:02;22.73;;;14.05;;
26181;SDS011;13927;51.534;11.866;2024-01-06T13:31:31;21.00;;;11.27;;
26181;SDS011;13927;51.534;11.866;2024-01-06T13:33:58;19.58;;;11.50;;
26181;SDS011;13927;51.534;11.866;2024-01-06T13:36:24;23.63;;;12.52;;
26181;SDS011;13927;51.534;11.866;2024-01-06T13:38:50;19.25;;;11.15;;
26181;SDS011;13927;51.534;11.866;2024-01-06T13:41:16;20.80;;;11.98;;
26181;SDS011;13927;51.534;11.866;2024-01-06T13:43:43;21.30;;;12.15;;
26181;SDS011;13927;51.534;11.866;2024-01-06T13:46:08;26.33;;;13.38;;
26181;SDS011;13927;51.534;11.866;2024-01-06T13:48:35;23.30;;;12.57;;
26181;SDS011;13927;51.534;11.866;2024-01-06T13:51:06;22.30;;;11.25;;
26181;SDS011;13927;51.534;11.866;2024-01-06T13:53:32;22.63;;;11.70;;
26181;SDS011;13927;51.534;11.866;2024-01-06T13:55:58;22.35;;;11.27;;
26181;SDS011;13927;51.534;11.866;2024-01-06T13:58:23;21.95;;;12.00;;
26181;SDS011;13927;51.534;11.866;2024-01-06T14:00:49;24.15;;;12.20;;
26181;SDS011;13927;51.534;11.866;2024-01-06T14:03:15;27.13;;;13.85;;
26181;SDS011;13927;51.534;11.866;2024-01-06T14:05:40;24.17;;;12.93;;
26181;SDS011;13927;51.534;11.866;2024-01-06T14:08:06;25.38;;;13.38;;
26181;SDS011;13927;51.534;11.866;2024-01-06T14:10:33;27.58;;;13.45;;
26181;SDS011;13927;51.534;11.866;2024-01-06T14:13:00;26.02;;;13.90;;
26181;SDS011;13927;51.534;11.866;2024-01-06T14:15:25;24.25;;;13.07;;
26181;SDS011;13927;51.534;11.866;2024-01-06T14:17:53;25.08;;;11.88;;
26181;SDS011;13927;51.534;11.866;2024-01-06T14:20:18;25.50;;;12.15;;
26181;SDS011;13927;51.534;11.866;2024-01-06T14:22:45;27.20;;;13.48;;
26181;SDS011;13927;51.534;11.866;2024-01-06T14:25:12;26.33;;;12.55;;
26181;SDS011;13927;51.534;11.866;2024-01-06T14:27:38;23.35;;;13.00;;
26181;SDS011;13927;51.534;11.866;2024-01-06T14:30:04;26.95;;;12.15;;